sensor_id;sensor_type;location;lat;lon;timestamp;P1;durP1;ratioP1;P2;durP2;ratioP2
10825;SDS011;5466;55.898;14.094;2024-01-15T00:00:14;7.93;;;2.57;;
10825;SDS011;5466;55.898;14.094;2024-01-15T00:02:15;9.53;;;2.90;;
10825;SDS011;5466;55.898;14.094;2024-01-15T00:04:15;6.30;;;2.40;;
10825;SDS011;5466;55.898;14.094;2024-01-15T00:06:16;8.73;;;2.67;;
10825;SDS011;5466;55.898;14.094;2024-01-15T00:08:17;5.47;;;2.37;;
10825;SDS011;5466;55.898;14.094;2024-01-15T00:10:17;7.67;;;2.47;;
10825;SDS011;5466;55.898;14.094;2024-01-15T00:12:18;8.30;;;2.40;;
10825;SDS011;5466;55.898;14.094;2024-01-15T00:14:19;13.07;;;2.60;;
10825;SDS011;5466;55.898;14.094;2024-01-15T00:16:20;10.13;;;2.67;;
10825;SDS011;5466;55.898;14.094;2024-01-15T00:18:20;5.37;;;2.13;;
10825;SDS011;5466;55.898;14.094;2024-01-15T00:20:21;6.57;;;2.63;;
10825;SDS011;5466;55.898;14.094;2024-01-15T00:22:25;5.47;;;2.20;;
10825;SDS011;5466;55.898;14.094;2024-01-15T00:24:27;8.50;;;2.53;;
10825;SDS011;5466;55.898;14.094;2024-01-15T00:26:27;9.97;;;2.70;;
10825;SDS011;5466;55.898;14.094;2024-01-15T00:28:28;10.73;;;2.63;;
10825;SDS011;5466;55.898;14.094;2024-01-15T00:30:28;8.27;;;3.10;;
10825;SDS011;5466;55.898;14.094;2024-01-15T00:32:29;10.17;;;2.60;;
10825;SDS011;5466;55.898;14.094;2024-01-15T00:34:30;7.27;;;2.57;;
10825;SDS011;5466;55.898;14.094;2024-01-15T00:36:30;8.30;;;2.60;;
10825;SDS011;5466;55.898;14.094;2024-01-15T00:38:31;8.53;;;2.33;;
10825;SDS011;5466;55.898;14.094;2024-01-15T00:40:32;7.53;;;2.40;;
10825;SDS011;5466;55.898;14.094;2024-01-15T00:42:32;9.27;;;2.70;;
10825;SDS011;5466;55.898;14.094;2024-01-15T00:44:33;10.20;;;2.70;;
10825;SDS011;5466;55.898;14.094;2024-01-15T00:46:41;10.33;;;2.80;;
10825;SDS011;5466;55.898;14.094;2024-01-15T00:48:45;9.13;;;3.00;;
10825;SDS011;5466;55.898;14.094;2024-01-15T00:50:47;9.30;;;2.67;;
10825;SDS011;5466;55.898;14.094;2024-01-15T00:52:47;12.80;;;3.30;;
10825;SDS011;5466;55.898;14.094;2024-01-15T00:54:48;10.30;;;2.50;;
10825;SDS011;5466;55.898;14.094;2024-01-15T00:56:48;5.00;;;3.10;;
10825;SDS011;5466;55.898;14.094;2024-01-15T00:58:49;8.10;;;2.40;;
10825;SDS011;5466;55.898;14.094;2024-01-15T01:00:50;8.50;;;2.63;;
10825;SDS011;5466;55.898;14.094;2024-01-15T01:02:50;12.13;;;3.83;;
10825;SDS011;5466;55.898;14.094;2024-01-15T01:04:51;8.10;;;3.10;;
10825;SDS011;5466;55.898;14.094;2024-01-15T01:06:51;5.30;;;2.40;;
10825;SDS011;5466;55.898;14.094;2024-01-15T01:08:52;6.90;;;2.43;;
10825;SDS011;5466;55.898;14.094;2024-01-15T01:10:52;12.53;;;2.73;;
10825;SDS011;5466;55.898;14.094;2024-01-15T01:12:53;10.87;;;2.43;;
10825;SDS011;5466;55.898;14.094;2024-01-15T01:14:54;6.50;;;2.77;;
10825;SDS011;5466;55.898;14.094;2024-01-15T01:16:54;5.93;;;2.20;;
10825;SDS011;5466;55.898;14.094;2024-01-15T01:18:55;7.93;;;2.70;;
10825;SDS011;5466;55.898;14.094;2024-01-15T01:20:56;5.43;;;2.57;;
10825;SDS011;5466;55.898;14.094;2024-01-15T01:22:56;8.07;;;3.20;;
10825;SDS011;5466;55.898;14.094;2024-01-15T01:24:57;8.40;;;2.70;;
10825;SDS011;5466;55.898;14.094;2024-01-15T01:26:57;8.73;;;2.87;;
10825;SDS011;5466;55.898;14.094;2024-01-15T01:28:58;8.53;;;2.50;;
10825;SDS011;5466;55.898;14.094;2024-01-15T01:30:59;10.43;;;2.67;;
10825;SDS011;5466;55.898;14.094;2024-01-15T01:33:00;8.57;;;2.60;;
10825;SDS011;5466;55.898;14.094;2024-01-15T01:35:00;15.23;;;2.63;;
10825;SDS011;5466;55.898;14.094;2024-01-15T01:37:01;8.30;;;2.67;;
10825;SDS011;5466;55.898;14.094;2024-01-15T01:39:01;7.00;;;2.27;;
10825;SDS011;5466;55.898;14.094;2024-01-15T01:41:02;11.93;;;2.67;;
10825;SDS011;5466;55.898;14.094;2024-01-15T01:43:04;12.63;;;3.00;;
10825;SDS011;5466;55.898;14.094;2024-01-15T01:45:05;8.90;;;2.93;;
10825;SDS011;5466;55.898;14.094;2024-01-15T01:47:06;8.70;;;2.93;;
10825;SDS011;5466;55.898;14.094;2024-01-15T01:49:07;7.37;;;2.70;;
10825;SDS011;5466;55.898;14.094;2024-01-15T01:51:09;10.83;;;3.10;;
10825;SDS011;5466;55.898;14.094;2024-01-15T01:53:11;11.90;;;2.83;;
10825;SDS011;5466;55.898;14.094;2024-01-15T01:55:11;11.67;;;2.80;;
10825;SDS011;5466;55.898;14.094;2024-01-15T01:57:12;7.03;;;2.70;;
10825;SDS011;5466;55.898;14.094;2024-01-15T01:59:15;7.60;;;2.77;;
10825;SDS011;5466;55.898;14.094;2024-01-15T02:01:15;9.13;;;2.30;;
10825;SDS011;5466;55.898;14.094;2024-01-15T02:03:17;8.83;;;2.90;;
10825;SDS011;5466;55.898;14.094;2024-01-15T02:05:18;13.90;;;2.73;;
10825;SDS011;5466;55.898;14.094;2024-01-15T02:07:20;15.67;;;2.97;;
10825;SDS011;5466;55.898;14.094;2024-01-15T02:09:21;8.43;;;2.50;;
10825;SDS011;5466;55.898;14.094;2024-01-15T02:11:22;9.30;;;2.27;;
10825;SDS011;5466;55.898;14.094;2024-01-15T02:13:22;9.93;;;2.30;;
10825;SDS011;5466;55.898;14.094;2024-01-15T02:15:23;6.30;;;2.30;;
10825;SDS011;5466;55.898;14.094;2024-01-15T02:17:24;8.50;;;2.67;;
10825;SDS011;5466;55.898;14.094;2024-01-15T02:19:24;7.37;;;2.43;;
10825;SDS011;5466;55.898;14.094;2024-01-15T02:21:25;10.70;;;2.23;;
10825;SDS011;5466;55.898;14.094;2024-01-15T02:23:28;7.30;;;2.30;;
10825;SDS011;5466;55.898;14.094;2024-01-15T02:25:29;7.73;;;2.57;;
10825;SDS011;5466;55.898;14.094;2024-01-15T02:27:29;8.67;;;2.27;;
10825;SDS011;5466;55.898;14.094;2024-01-15T02:29:30;8.93;;;2.70;;
10825;SDS011;5466;55.898;14.094;2024-01-15T02:31:31;8.77;;;2.13;;
10825;SDS011;5466;55.898;14.094;2024-01-15T02:33:31;13.10;;;2.73;;
10825;SDS011;5466;55.898;14.094;2024-01-15T02:35:32;7.53;;;2.53;;
10825;SDS011;5466;55.898;14.094;2024-01-15T02:37:33;9.27;;;2.37;;
10825;SDS011;5466;55.898;14.094;2024-01-15T02:39:34;7.87;;;2.30;;
10825;SDS011;5466;55.898;14.094;2024-01-15T02:41:34;8.13;;;2.60;;
10825;SDS011;5466;55.898;14.094;2024-01-15T02:43:35;3.63;;;2.13;;
10825;SDS011;5466;55.898;14.094;2024-01-15T02:45:35;6.17;;;2.10;;
10825;SDS011;5466;55.898;14.094;2024-01-15T02:47:36;10.93;;;2.10;;
10825;SDS011;5466;55.898;14.094;2024-01-15T02:49:37;7.43;;;2.53;;
10825;SDS011;5466;55.898;14.094;2024-01-15T02:51:37;5.00;;;2.50;;
10825;SDS011;5466;55.898;14.094;2024-01-15T02:53:38;7.10;;;2.47;;
10825;SDS011;5466;55.898;14.094;2024-01-15T02:55:39;11.20;;;2.50;;
10825;SDS011;5466;55.898;14.094;2024-01-15T02:57:39;7.73;;;2.40;;
10825;SDS011;5466;55.898;14.094;2024-01-15T02:59:40;11.63;;;2.30;;
10825;SDS011;5466;55.898;14.094;2024-01-15T03:01:41;9.40;;;2.50;;
10825;SDS011;5466;55.898;14.094;2024-01-15T03:03:41;3.80;;;2.20;;
10825;SDS011;5466;55.898;14.094;2024-01-15T03:05:42;8.67;;;2.70;;
10825;SDS011;5466;55.898;14.094;2024-01-15T03:07:42;7.37;;;2.20;;
10825;SDS011;5466;55.898;14.094;2024-01-15T03:09:43;6.97;;;2.07;;
10825;SDS011;5466;55.898;14.094;2024-01-15T03:11:44;16.17;;;2.87;;
10825;SDS011;5466;55.898;14.094;2024-01-15T03:13:45;12.77;;;2.63;;
10825;SDS011;5466;55.898;14.094;2024-01-15T03:15:45;5.67;;;2.20;;
10825;SDS011;5466;55.898;14.094;2024-01-15T03:17:46;8.20;;;2.70;;
10825;SDS011;5466;55.898;14.094;2024-01-15T03:19:46;8.53;;;2.20;;
10825;SDS011;5466;55.898;14.094;2024-01-15T03:21:47;11.57;;;2.27;;
10825;SDS011;5466;55.898;14.094;2024-01-15T03:23:48;11.10;;;2.33;;
10825;SDS011;5466;55.898;14.094;2024-01-15T03:25:48;7.20;;;2.67;;
10825;SDS011;5466;55.898;14.094;2024-01-15T03:27:49;8.37;;;3.20;;
10825;SDS011;5466;55.898;14.094;2024-01-15T03:29:50;8.53;;;2.27;;
10825;SDS011;5466;55.898;14.094;2024-01-15T03:31:50;5.67;;;2.10;;
10825;SDS011;5466;55.898;14.094;2024-01-15T03:33:51;9.90;;;2.30;;
10825;SDS011;5466;55.898;14.094;2024-01-15T03:35:52;6.93;;;2.27;;
10825;SDS011;5466;55.898;14.094;2024-01-15T03:37:52;4.27;;;2.10;;
10825;SDS011;5466;55.898;14.094;2024-01-15T03:39:53;15.33;;;2.50;;
10825;SDS011;5466;55.898;14.094;2024-01-15T03:41:53;7.97;;;2.30;;
10825;SDS011;5466;55.898;14.094;2024-01-15T03:43:55;5.17;;;2.10;;
10825;SDS011;5466;55.898;14.094;2024-01-15T03:45:55;9.97;;;2.10;;
10825;SDS011;5466;55.898;14.094;2024-01-15T03:47:56;6.80;;;1.97;;
10825;SDS011;5466;55.898;14.094;2024-01-15T03:49:57;7.80;;;2.13;;
10825;SDS011;5466;55.898;14.094;2024-01-15T03:51:59;7.93;;;2.27;;
10825;SDS011;5466;55.898;14.094;2024-01-15T03:53:59;6.77;;;2.23;;
10825;SDS011;5466;55.898;14.094;2024-01-15T03:56:00;5.43;;;2.47;;
10825;SDS011;5466;55.898;14.094;2024-01-15T03:58:01;17.67;;;3.37;;
10825;SDS011;5466;55.898;14.094;2024-01-15T04:00:01;7.23;;;2.10;;
10825;SDS011;5466;55.898;14.094;2024-01-15T04:02:04;9.03;;;2.93;;
10825;SDS011;5466;55.898;14.094;2024-01-15T04:04:04;9.00;;;2.33;;
10825;SDS011;5466;55.898;14.094;2024-01-15T04:06:05;11.10;;;2.13;;
10825;SDS011;5466;55.898;14.094;2024-01-15T04:08:05;18.67;;;2.57;;
10825;SDS011;5466;55.898;14.094;2024-01-15T04:10:06;7.90;;;2.30;;
10825;SDS011;5466;55.898;14.094;2024-01-15T04:12:07;2.87;;;2.30;;
10825;SDS011;5466;55.898;14.094;2024-01-15T04:14:08;7.40;;;2.23;;
10825;SDS011;5466;55.898;14.094;2024-01-15T04:16:08;7.03;;;2.20;;
10825;SDS011;5466;55.898;14.094;2024-01-15T04:18:09;9.87;;;2.27;;
10825;SDS011;5466;55.898;14.094;2024-01-15T04:20:10;6.63;;;2.33;;
10825;SDS011;5466;55.898;14.094;2024-01-15T04:22:11;11.67;;;2.50;;
10825;SDS011;5466;55.898;14.094;2024-01-15T04:24:11;10.67;;;2.30;;
10825;SDS011;5466;55.898;14.094;2024-01-15T04:26:12;7.87;;;2.27;;
10825;SDS011;5466;55.898;14.094;2024-01-15T04:28:13;10.40;;;2.23;;
10825;SDS011;5466;55.898;14.094;2024-01-15T04:30:13;6.23;;;2.23;;
10825;SDS011;5466;55.898;14.094;2024-01-15T04:32:14;4.57;;;2.40;;
10825;SDS011;5466;55.898;14.094;2024-01-15T04:34:15;6.53;;;2.30;;
10825;SDS011;5466;55.898;14.094;2024-01-15T04:36:15;8.33;;;2.43;;
10825;SDS011;5466;55.898;14.094;2024-01-15T04:38:16;5.07;;;2.50;;
10825;SDS011;5466;55.898;14.094;2024-01-15T04:40:17;7.27;;;2.20;;
10825;SDS011;5466;55.898;14.094;2024-01-15T04:42:17;6.57;;;2.67;;
10825;SDS011;5466;55.898;14.094;2024-01-15T04:44:18;11.57;;;2.60;;
10825;SDS011;5466;55.898;14.094;2024-01-15T04:46:19;6.87;;;2.67;;
10825;SDS011;5466;55.898;14.094;2024-01-15T04:48:19;6.70;;;2.20;;
10825;SDS011;5466;55.898;14.094;2024-01-15T04:50:20;9.50;;;1.87;;
10825;SDS011;5466;55.898;14.094;2024-01-15T04:52:21;11.97;;;2.20;;
10825;SDS011;5466;55.898;14.094;2024-01-15T04:54:21;5.13;;;2.70;;
10825;SDS011;5466;55.898;14.094;2024-01-15T04:56:22;6.10;;;2.20;;
10825;SDS011;5466;55.898;14.094;2024-01-15T04:58:22;11.80;;;2.40;;
10825;SDS011;5466;55.898;14.094;2024-01-15T05:00:25;9.33;;;2.93;;
10825;SDS011;5466;55.898;14.094;2024-01-15T05:02:26;9.83;;;3.07;;
10825;SDS011;5466;55.898;14.094;2024-01-15T05:04:27;9.27;;;3.20;;
10825;SDS011;5466;55.898;14.094;2024-01-15T05:06:27;9.67;;;3.43;;
10825;SDS011;5466;55.898;14.094;2024-01-15T05:08:28;12.13;;;4.03;;
10825;SDS011;5466;55.898;14.094;2024-01-15T05:10:28;12.40;;;4.17;;
10825;SDS011;5466;55.898;14.094;2024-01-15T05:12:29;7.03;;;4.13;;
10825;SDS011;5466;55.898;14.094;2024-01-15T05:14:30;13.17;;;5.27;;
10825;SDS011;5466;55.898;14.094;2024-01-15T05:16:30;12.03;;;4.67;;
10825;SDS011;5466;55.898;14.094;2024-01-15T05:18:31;10.13;;;3.97;;
10825;SDS011;5466;55.898;14.094;2024-01-15T05:20:32;9.80;;;3.80;;
10825;SDS011;5466;55.898;14.094;2024-01-15T05:22:32;6.57;;;3.60;;
10825;SDS011;5466;55.898;14.094;2024-01-15T05:24:33;8.80;;;3.17;;
10825;SDS011;5466;55.898;14.094;2024-01-15T05:26:33;9.37;;;3.17;;
10825;SDS011;5466;55.898;14.094;2024-01-15T05:28:34;7.70;;;2.70;;
10825;SDS011;5466;55.898;14.094;2024-01-15T05:30:35;8.70;;;3.10;;
10825;SDS011;5466;55.898;14.094;2024-01-15T05:32:36;8.23;;;2.90;;
10825;SDS011;5466;55.898;14.094;2024-01-15T05:34:36;9.17;;;2.70;;
10825;SDS011;5466;55.898;14.094;2024-01-15T05:36:37;5.10;;;2.57;;
10825;SDS011;5466;55.898;14.094;2024-01-15T05:38:38;7.87;;;2.60;;
10825;SDS011;5466;55.898;14.094;2024-01-15T05:40:38;11.43;;;2.13;;
10825;SDS011;5466;55.898;14.094;2024-01-15T05:42:39;7.50;;;2.60;;
10825;SDS011;5466;55.898;14.094;2024-01-15T05:44:41;10.63;;;2.27;;
10825;SDS011;5466;55.898;14.094;2024-01-15T05:46:41;4.70;;;2.10;;
10825;SDS011;5466;55.898;14.094;2024-01-15T05:48:42;4.27;;;1.90;;
10825;SDS011;5466;55.898;14.094;2024-01-15T05:50:42;5.40;;;2.20;;
10825;SDS011;5466;55.898;14.094;2024-01-15T05:52:43;5.07;;;2.20;;
10825;SDS011;5466;55.898;14.094;2024-01-15T05:54:44;3.47;;;1.97;;
10825;SDS011;5466;55.898;14.094;2024-01-15T05:56:44;4.47;;;1.93;;
10825;SDS011;5466;55.898;14.094;2024-01-15T05:58:45;2.17;;;1.50;;
10825;SDS011;5466;55.898;14.094;2024-01-15T06:00:46;1.60;;;1.40;;
10825;SDS011;5466;55.898;14.094;2024-01-15T06:02:47;3.50;;;1.30;;
10825;SDS011;5466;55.898;14.094;2024-01-15T06:04:48;3.93;;;1.70;;
10825;SDS011;5466;55.898;14.094;2024-01-15T06:06:49;1.57;;;1.40;;
10825;SDS011;5466;55.898;14.094;2024-01-15T06:08:50;2.17;;;1.70;;
10825;SDS011;5466;55.898;14.094;2024-01-15T06:10:50;1.50;;;1.40;;
10825;SDS011;5466;55.898;14.094;2024-01-15T06:12:51;1.73;;;1.20;;
10825;SDS011;5466;55.898;14.094;2024-01-15T06:14:51;1.67;;;1.17;;
10825;SDS011;5466;55.898;14.094;2024-01-15T06:16:52;1.13;;;1.10;;
10825;SDS011;5466;55.898;14.094;2024-01-15T06:18:52;1.73;;;1.00;;
10825;SDS011;5466;55.898;14.094;2024-01-15T06:20:53;4.03;;;1.20;;
10825;SDS011;5466;55.898;14.094;2024-01-15T06:22:54;1.00;;;1.00;;
10825;SDS011;5466;55.898;14.094;2024-01-15T06:24:54;2.90;;;1.20;;
10825;SDS011;5466;55.898;14.094;2024-01-15T06:26:55;2.13;;;1.17;;
10825;SDS011;5466;55.898;14.094;2024-01-15T06:28:56;1.20;;;1.10;;
10825;SDS011;5466;55.898;14.094;2024-01-15T06:30:57;4.97;;;1.30;;
10825;SDS011;5466;55.898;14.094;2024-01-15T06:32:58;1.43;;;1.30;;
10825;SDS011;5466;55.898;14.094;2024-01-15T06:34:58;3.30;;;1.23;;
10825;SDS011;5466;55.898;14.094;2024-01-15T06:36:59;4.20;;;1.20;;
10825;SDS011;5466;55.898;14.094;2024-01-15T06:38:59;1.10;;;1.00;;
10825;SDS011;5466;55.898;14.094;2024-01-15T06:41:00;1.80;;;1.30;;
10825;SDS011;5466;55.898;14.094;2024-01-15T06:43:01;1.80;;;1.37;;
10825;SDS011;5466;55.898;14.094;2024-01-15T06:45:01;1.50;;;1.30;;
10825;SDS011;5466;55.898;14.094;2024-01-15T06:47:03;1.40;;;1.20;;
10825;SDS011;5466;55.898;14.094;2024-01-15T06:49:05;2.70;;;1.70;;
10825;SDS011;5466;55.898;14.094;2024-01-15T06:51:06;4.43;;;2.27;;
10825;SDS011;5466;55.898;14.094;2024-01-15T06:53:06;4.97;;;1.90;;
10825;SDS011;5466;55.898;14.094;2024-01-15T06:55:07;1.27;;;1.17;;
10825;SDS011;5466;55.898;14.094;2024-01-15T06:57:08;1.47;;;1.37;;
10825;SDS011;5466;55.898;14.094;2024-01-15T06:59:08;1.53;;;1.10;;
10825;SDS011;5466;55.898;14.094;2024-01-15T07:01:09;2.30;;;1.30;;
10825;SDS011;5466;55.898;14.094;2024-01-15T07:03:10;1.50;;;1.40;;
10825;SDS011;5466;55.898;14.094;2024-01-15T07:05:10;3.27;;;1.30;;
10825;SDS011;5466;55.898;14.094;2024-01-15T07:07:11;1.30;;;1.20;;
10825;SDS011;5466;55.898;14.094;2024-01-15T07:09:12;4.80;;;1.47;;
10825;SDS011;5466;55.898;14.094;2024-01-15T07:11:12;3.40;;;1.90;;
10825;SDS011;5466;55.898;14.094;2024-01-15T07:13:13;6.53;;;2.40;;
10825;SDS011;5466;55.898;14.094;2024-01-15T07:15:14;5.30;;;2.30;;
10825;SDS011;5466;55.898;14.094;2024-01-15T07:17:15;9.67;;;3.10;;
10825;SDS011;5466;55.898;14.094;2024-01-15T07:19:16;5.67;;;1.93;;
10825;SDS011;5466;55.898;14.094;2024-01-15T07:21:17;6.47;;;3.83;;
10825;SDS011;5466;55.898;14.094;2024-01-15T07:23:17;3.83;;;2.00;;
10825;SDS011;5466;55.898;14.094;2024-01-15T07:25:18;7.40;;;2.90;;
10825;SDS011;5466;55.898;14.094;2024-01-15T07:27:18;4.27;;;2.90;;
10825;SDS011;5466;55.898;14.094;2024-01-15T07:29:20;4.17;;;2.53;;
10825;SDS011;5466;55.898;14.094;2024-01-15T07:31:20;3.30;;;2.33;;
10825;SDS011;5466;55.898;14.094;2024-01-15T07:33:21;4.83;;;2.63;;
10825;SDS011;5466;55.898;14.094;2024-01-15T07:35:22;5.33;;;3.40;;
10825;SDS011;5466;55.898;14.094;2024-01-15T07:37:22;5.83;;;3.23;;
10825;SDS011;5466;55.898;14.094;2024-01-15T07:39:23;3.60;;;2.90;;
10825;SDS011;5466;55.898;14.094;2024-01-15T07:41:24;3.27;;;2.37;;
10825;SDS011;5466;55.898;14.094;2024-01-15T07:43:25;2.83;;;1.53;;
10825;SDS011;5466;55.898;14.094;2024-01-15T07:45:26;1.90;;;1.40;;
10825;SDS011;5466;55.898;14.094;2024-01-15T07:47:27;1.70;;;1.60;;
10825;SDS011;5466;55.898;14.094;2024-01-15T07:49:28;2.33;;;1.40;;
10825;SDS011;5466;55.898;14.094;2024-01-15T07:51:28;1.77;;;1.33;;
10825;SDS011;5466;55.898;14.094;2024-01-15T07:53:29;4.53;;;1.67;;
10825;SDS011;5466;55.898;14.094;2024-01-15T07:55:30;4.00;;;1.40;;
10825;SDS011;5466;55.898;14.094;2024-01-15T07:57:30;2.70;;;1.60;;
10825;SDS011;5466;55.898;14.094;2024-01-15T07:59:31;3.50;;;1.60;;
10825;SDS011;5466;55.898;14.094;2024-01-15T08:01:32;2.30;;;1.83;;
10825;SDS011;5466;55.898;14.094;2024-01-15T08:03:32;3.90;;;1.43;;
10825;SDS011;5466;55.898;14.094;2024-01-15T08:05:33;3.77;;;1.90;;
10825;SDS011;5466;55.898;14.094;2024-01-15T08:07:34;5.43;;;1.70;;
10825;SDS011;5466;55.898;14.094;2024-01-15T08:09:35;6.20;;;1.70;;
10825;SDS011;5466;55.898;14.094;2024-01-15T08:11:36;5.03;;;2.10;;
10825;SDS011;5466;55.898;14.094;2024-01-15T08:13:39;2.00;;;1.43;;
10825;SDS011;5466;55.898;14.094;2024-01-15T08:15:40;4.30;;;1.50;;
10825;SDS011;5466;55.898;14.094;2024-01-15T08:17:41;2.30;;;1.63;;
10825;SDS011;5466;55.898;14.094;2024-01-15T08:19:42;6.17;;;1.83;;
10825;SDS011;5466;55.898;14.094;2024-01-15T08:21:42;4.10;;;2.00;;
10825;SDS011;5466;55.898;14.094;2024-01-15T08:23:43;3.90;;;1.47;;
10825;SDS011;5466;55.898;14.094;2024-01-15T08:25:44;4.57;;;1.80;;
10825;SDS011;5466;55.898;14.094;2024-01-15T08:27:44;4.60;;;1.63;;
10825;SDS011;5466;55.898;14.094;2024-01-15T08:29:45;4.20;;;1.60;;
10825;SDS011;5466;55.898;14.094;2024-01-15T08:31:45;11.77;;;1.97;;
10825;SDS011;5466;55.898;14.094;2024-01-15T08:33:46;5.40;;;1.90;;
10825;SDS011;5466;55.898;14.094;2024-01-15T08:35:47;3.30;;;1.83;;
10825;SDS011;5466;55.898;14.094;2024-01-15T08:37:50;6.70;;;1.50;;
10825;SDS011;5466;55.898;14.094;2024-01-15T08:39:54;4.17;;;2.27;;
10825;SDS011;5466;55.898;14.094;2024-01-15T08:41:55;5.57;;;1.80;;
10825;SDS011;5466;55.898;14.094;2024-01-15T08:43:55;3.13;;;1.77;;
10825;SDS011;5466;55.898;14.094;2024-01-15T08:45:56;5.63;;;1.80;;
10825;SDS011;5466;55.898;14.094;2024-01-15T08:47:57;5.07;;;1.80;;
10825;SDS011;5466;55.898;14.094;2024-01-15T08:49:58;9.07;;;2.00;;
10825;SDS011;5466;55.898;14.094;2024-01-15T08:51:59;6.87;;;1.80;;
10825;SDS011;5466;55.898;14.094;2024-01-15T08:53:59;4.17;;;2.20;;
10825;SDS011;5466;55.898;14.094;2024-01-15T08:56:00;5.77;;;2.50;;
10825;SDS011;5466;55.898;14.094;2024-01-15T08:58:00;3.60;;;2.13;;
10825;SDS011;5466;55.898;14.094;2024-01-15T09:00:01;6.77;;;2.13;;
10825;SDS011;5466;55.898;14.094;2024-01-15T09:02:03;6.83;;;1.90;;
10825;SDS011;5466;55.898;14.094;2024-01-15T09:04:04;6.33;;;1.70;;
10825;SDS011;5466;55.898;14.094;2024-01-15T09:06:04;3.30;;;1.83;;
10825;SDS011;5466;55.898;14.094;2024-01-15T09:08:05;8.17;;;1.87;;
10825;SDS011;5466;55.898;14.094;2024-01-15T09:10:06;4.33;;;2.10;;
10825;SDS011;5466;55.898;14.094;2024-01-15T09:12:07;6.27;;;2.03;;
10825;SDS011;5466;55.898;14.094;2024-01-15T09:14:08;4.80;;;1.70;;
10825;SDS011;5466;55.898;14.094;2024-01-15T09:16:09;6.23;;;2.20;;
10825;SDS011;5466;55.898;14.094;2024-01-15T09:18:09;3.70;;;1.90;;
10825;SDS011;5466;55.898;14.094;2024-01-15T09:20:10;4.97;;;1.90;;
10825;SDS011;5466;55.898;14.094;2024-01-15T09:22:12;3.20;;;1.83;;
10825;SDS011;5466;55.898;14.094;2024-01-15T09:24:14;2.63;;;1.77;;
10825;SDS011;5466;55.898;14.094;2024-01-15T09:26:14;5.13;;;1.50;;
10825;SDS011;5466;55.898;14.094;2024-01-15T09:28:15;3.10;;;2.00;;
10825;SDS011;5466;55.898;14.094;2024-01-15T09:30:16;6.90;;;1.93;;
10825;SDS011;5466;55.898;14.094;2024-01-15T09:32:16;4.87;;;1.77;;
10825;SDS011;5466;55.898;14.094;2024-01-15T09:34:17;5.07;;;2.03;;
10825;SDS011;5466;55.898;14.094;2024-01-15T09:36:18;4.70;;;2.10;;
10825;SDS011;5466;55.898;14.094;2024-01-15T09:38:19;7.90;;;2.07;;
10825;SDS011;5466;55.898;14.094;2024-01-15T09:40:20;2.07;;;1.40;;
10825;SDS011;5466;55.898;14.094;2024-01-15T09:42:21;4.20;;;1.80;;
10825;SDS011;5466;55.898;14.094;2024-01-15T09:44:24;4.13;;;1.77;;
10825;SDS011;5466;55.898;14.094;2024-01-15T09:46:26;3.37;;;1.73;;
10825;SDS011;5466;55.898;14.094;2024-01-15T09:48:27;7.90;;;1.90;;
10825;SDS011;5466;55.898;14.094;2024-01-15T09:50:27;3.37;;;1.60;;
10825;SDS011;5466;55.898;14.094;2024-01-15T09:52:29;4.00;;;1.67;;
10825;SDS011;5466;55.898;14.094;2024-01-15T09:54:30;3.93;;;1.70;;
10825;SDS011;5466;55.898;14.094;2024-01-15T09:56:32;2.10;;;1.27;;
10825;SDS011;5466;55.898;14.094;2024-01-15T09:58:33;2.37;;;1.47;;
10825;SDS011;5466;55.898;14.094;2024-01-15T10:00:37;4.77;;;1.83;;
10825;SDS011;5466;55.898;14.094;2024-01-15T10:02:41;1.90;;;1.40;;
10825;SDS011;5466;55.898;14.094;2024-01-15T10:04:42;2.10;;;1.23;;
10825;SDS011;5466;55.898;14.094;2024-01-15T10:06:44;2.10;;;1.50;;
10825;SDS011;5466;55.898;14.094;2024-01-15T10:08:47;1.60;;;1.50;;
10825;SDS011;5466;55.898;14.094;2024-01-15T10:10:51;2.23;;;1.57;;
10825;SDS011;5466;55.898;14.094;2024-01-15T10:12:52;2.63;;;1.50;;
10825;SDS011;5466;55.898;14.094;2024-01-15T10:14:55;2.37;;;1.30;;
10825;SDS011;5466;55.898;14.094;2024-01-15T10:16:56;2.07;;;1.00;;
10825;SDS011;5466;55.898;14.094;2024-01-15T10:18:57;1.97;;;1.10;;
10825;SDS011;5466;55.898;14.094;2024-01-15T10:20:57;1.10;;;1.10;;
10825;SDS011;5466;55.898;14.094;2024-01-15T10:22:58;1.00;;;1.00;;
10825;SDS011;5466;55.898;14.094;2024-01-15T10:24:59;1.20;;;1.10;;
10825;SDS011;5466;55.898;14.094;2024-01-15T10:27:06;1.20;;;1.17;;
10825;SDS011;5466;55.898;14.094;2024-01-15T10:29:07;1.17;;;1.10;;
10825;SDS011;5466;55.898;14.094;2024-01-15T10:31:08;1.40;;;1.30;;
10825;SDS011;5466;55.898;14.094;2024-01-15T10:33:10;0.80;;;0.80;;
10825;SDS011;5466;55.898;14.094;2024-01-15T10:35:11;0.90;;;0.90;;
10825;SDS011;5466;55.898;14.094;2024-01-15T10:37:12;0.73;;;0.73;;
10825;SDS011;5466;55.898;14.094;2024-01-15T10:39:13;0.87;;;0.87;;
10825;SDS011;5466;55.898;14.094;2024-01-15T10:41:14;1.63;;;1.00;;
10825;SDS011;5466;55.898;14.094;2024-01-15T10:43:16;1.40;;;1.30;;
10825;SDS011;5466;55.898;14.094;2024-01-15T10:45:17;1.00;;;1.00;;
10825;SDS011;5466;55.898;14.094;2024-01-15T10:47:18;1.13;;;1.03;;
10825;SDS011;5466;55.898;14.094;2024-01-15T10:49:20;0.90;;;0.90;;
10825;SDS011;5466;55.898;14.094;2024-01-15T10:51:21;1.20;;;1.20;;
10825;SDS011;5466;55.898;14.094;2024-01-15T10:53:23;2.23;;;1.47;;
10825;SDS011;5466;55.898;14.094;2024-01-15T10:55:25;1.27;;;1.00;;
10825;SDS011;5466;55.898;14.094;2024-01-15T10:57:26;1.00;;;0.90;;
10825;SDS011;5466;55.898;14.094;2024-01-15T10:59:28;1.03;;;1.00;;
10825;SDS011;5466;55.898;14.094;2024-01-15T11:01:30;0.73;;;0.73;;
10825;SDS011;5466;55.898;14.094;2024-01-15T11:03:31;3.30;;;1.10;;
10825;SDS011;5466;55.898;14.094;2024-01-15T11:05:37;1.00;;;1.00;;
10825;SDS011;5466;55.898;14.094;2024-01-15T11:07:41;0.93;;;0.93;;
10825;SDS011;5466;55.898;14.094;2024-01-15T11:09:42;1.27;;;1.20;;
10825;SDS011;5466;55.898;14.094;2024-01-15T11:11:46;1.00;;;1.00;;
10825;SDS011;5466;55.898;14.094;2024-01-15T11:13:48;1.10;;;1.10;;
10825;SDS011;5466;55.898;14.094;2024-01-15T11:15:59;1.10;;;1.10;;
10825;SDS011;5466;55.898;14.094;2024-01-15T11:18:04;1.10;;;1.10;;
10825;SDS011;5466;55.898;14.094;2024-01-15T11:20:05;1.10;;;1.10;;
10825;SDS011;5466;55.898;14.094;2024-01-15T11:22:10;1.10;;;1.10;;
10825;SDS011;5466;55.898;14.094;2024-01-15T11:24:40;1.00;;;1.00;;
10825;SDS011;5466;55.898;14.094;2024-01-15T11:28:47;1.17;;;1.10;;
10825;SDS011;5466;55.898;14.094;2024-01-15T11:30:48;1.67;;;1.30;;
10825;SDS011;5466;55.898;14.094;2024-01-15T11:32:49;2.30;;;1.30;;
10825;SDS011;5466;55.898;14.094;2024-01-15T11:34:51;1.23;;;1.23;;
10825;SDS011;5466;55.898;14.094;2024-01-15T11:37:03;1.53;;;1.40;;
10825;SDS011;5466;55.898;14.094;2024-01-15T11:41:30;1.83;;;1.20;;
10825;SDS011;5466;55.898;14.094;2024-01-15T11:43:31;1.20;;;1.10;;
10825;SDS011;5466;55.898;14.094;2024-01-15T11:45:33;1.40;;;1.30;;
10825;SDS011;5466;55.898;14.094;2024-01-15T11:50:02;1.23;;;1.20;;
10825;SDS011;5466;55.898;14.094;2024-01-15T11:52:05;2.93;;;1.50;;
10825;SDS011;5466;55.898;14.094;2024-01-15T11:54:07;1.30;;;1.30;;
10825;SDS011;5466;55.898;14.094;2024-01-15T11:56:17;1.23;;;1.23;;
10825;SDS011;5466;55.898;14.094;2024-01-15T11:58:21;2.37;;;1.50;;
10825;SDS011;5466;55.898;14.094;2024-01-15T12:00:22;1.40;;;1.30;;
10825;SDS011;5466;55.898;14.094;2024-01-15T12:02:23;1.20;;;1.10;;
10825;SDS011;5466;55.898;14.094;2024-01-15T12:04:24;2.30;;;1.40;;
10825;SDS011;5466;55.898;14.094;2024-01-15T12:06:25;2.23;;;1.53;;
10825;SDS011;5466;55.898;14.094;2024-01-15T12:08:25;1.43;;;1.37;;
10825;SDS011;5466;55.898;14.094;2024-01-15T12:10:27;1.50;;;1.40;;
10825;SDS011;5466;55.898;14.094;2024-01-15T12:12:37;1.10;;;1.10;;
10825;SDS011;5466;55.898;14.094;2024-01-15T12:14:44;6.50;;;2.37;;